METAR Data
IDs: Format: Raw Decoded Include TAF

Data at: 1119 UTC 07 Dec 2022

METAR for:KSPB (Scappoose Ind Airpar, OR, US)
Text:KSPB 071103Z AUTO 00000KT 7SM BKN009 OVC042 03/02 A3020 RMK AO2 CIG 007V012 T00330022
Temperature: 3.3°C ( 38°F)
Dewpoint: 2.2°C ( 36°F) [RH = 92%]
Pressure (altimeter):30.20 inches Hg (1022.8 mb)
Winds:calm
Visibility: 7 sm ( 11 km)
Ceiling:900 feet AGL
Clouds: broken clouds at 900 feet AGL, overcast cloud deck at 4200 feet AGL
QC Flag:automated observation with no human augmentation